createdAt,value
2022-08-17T00:02:26.870Z,22.50
2022-08-17T00:04:54.900Z,22.50
2022-08-17T00:07:21.911Z,22.40
2022-08-17T00:09:48.603Z,22.40
2022-08-17T00:12:41.414Z,22.40
2022-08-17T00:15:02.694Z,22.30
2022-08-17T00:17:29.482Z,22.30
2022-08-17T00:19:56.172Z,22.30
2022-08-17T00:22:34.098Z,22.20
2022-08-17T00:25:05.275Z,22.20
2022-08-17T00:27:32.057Z,22.20
2022-08-17T00:29:58.761Z,22.20
2022-08-17T00:33:13.673Z,22.20
2022-08-17T00:35:15.956Z,22.20
2022-08-17T00:37:42.620Z,22.20
2022-08-17T00:40:13.022Z,22.10
2022-08-17T00:42:40.240Z,22.10
2022-08-17T00:45:08.681Z,22.10
2022-08-17T00:47:35.426Z,22.10
2022-08-17T00:50:02.408Z,22.10
2022-08-17T00:52:35.723Z,22.10
2022-08-17T00:55:04.615Z,22.10
2022-08-17T00:57:36.491Z,22.10
2022-08-17T01:00:14.912Z,22.00
2022-08-17T01:02:46.158Z,22.00
2022-08-17T01:05:18.657Z,21.90
2022-08-17T01:07:47.871Z,21.80
2022-08-17T01:10:59.966Z,21.80
2022-08-17T01:13:04.714Z,21.80
2022-08-17T01:15:33.697Z,21.70
2022-08-17T01:18:00.519Z,21.70
2022-08-17T01:20:27.699Z,21.60
2022-08-17T01:22:54.592Z,21.60
2022-08-17T01:25:22.258Z,21.60
2022-08-17T01:27:49.699Z,21.60
2022-08-17T01:30:56.652Z,21.60
2022-08-17T01:33:05.646Z,21.60
2022-08-17T01:35:32.359Z,21.60
2022-08-17T01:37:59.082Z,21.60
2022-08-17T01:40:51.128Z,21.60
2022-08-17T01:43:36.045Z,21.60
2022-08-17T01:46:04.172Z,21.60
2022-08-17T01:48:36.474Z,21.60
2022-08-17T01:51:05.960Z,21.50
2022-08-17T01:53:39.486Z,21.50
2022-08-17T01:56:16.019Z,21.60
2022-08-17T01:58:43.649Z,21.60
2022-08-17T02:01:11.772Z,21.60
2022-08-17T02:03:38.462Z,21.70
2022-08-17T02:06:27.052Z,21.70
2022-08-17T02:09:03.005Z,21.80
2022-08-17T02:11:33.182Z,21.80
2022-08-17T02:14:02.946Z,21.80
2022-08-17T02:16:37.864Z,21.80
2022-08-17T02:19:08.379Z,21.90
2022-08-17T02:21:36.986Z,21.90
2022-08-17T02:24:06.692Z,21.90
2022-08-17T02:26:33.590Z,21.90
2022-08-17T02:29:00.281Z,21.90
2022-08-17T02:31:27.090Z,21.90
2022-08-17T02:34:00.582Z,21.90
2022-08-17T02:36:33.693Z,21.90
2022-08-17T02:39:02.757Z,21.90
2022-08-17T02:41:29.495Z,21.90
2022-08-17T02:43:56.149Z,21.90
2022-08-17T02:46:22.849Z,21.90
2022-08-17T02:48:49.626Z,21.90
2022-08-17T02:51:16.648Z,21.80
2022-08-17T02:53:43.404Z,21.80
2022-08-17T02:56:10.079Z,21.70
2022-08-17T02:58:36.777Z,21.70
2022-08-17T03:01:05.824Z,21.70
2022-08-17T03:03:32.787Z,21.60
2022-08-17T03:05:59.660Z,21.60
2022-08-17T03:08:27.184Z,21.60
2022-08-17T03:10:54.021Z,21.60
2022-08-17T03:13:20.812Z,21.60
2022-08-17T03:15:48.807Z,21.50
2022-08-17T03:18:25.763Z,21.50
2022-08-17T03:20:56.714Z,21.50
2022-08-17T03:23:25.394Z,21.50
2022-08-17T03:25:53.774Z,21.50
2022-08-17T03:28:22.066Z,21.50
2022-08-17T03:30:50.970Z,21.40
2022-08-17T03:33:18.595Z,21.40
2022-08-17T03:35:45.597Z,21.40
2022-08-17T03:38:15.139Z,21.30
2022-08-17T03:40:56.792Z,21.30
2022-08-17T03:43:26.535Z,21.30
2022-08-17T03:46:27.607Z,21.30
2022-08-17T03:49:17.387Z,21.30
2022-08-17T03:52:02.976Z,21.30
2022-08-17T03:54:48.410Z,21.20
2022-08-17T03:57:15.343Z,21.10
2022-08-17T03:59:42.876Z,21.10
2022-08-17T04:02:24.198Z,21.00
2022-08-17T04:04:52.398Z,21.00
2022-08-17T04:07:22.368Z,20.90
2022-08-17T04:09:49.599Z,20.90
2022-08-17T04:12:19.095Z,20.80
2022-08-17T04:14:51.834Z,20.80
2022-08-17T04:17:20.069Z,20.80
2022-08-17T04:19:46.933Z,20.80
2022-08-17T04:22:32.479Z,20.80
2022-08-17T04:25:09.861Z,20.80
2022-08-17T04:27:36.632Z,20.80
2022-08-17T04:30:06.890Z,20.80
2022-08-17T04:33:00.515Z,20.90
2022-08-17T04:35:38.488Z,20.80
2022-08-17T04:38:06.762Z,20.80
2022-08-17T04:40:52.276Z,20.80
2022-08-17T04:43:21.308Z,20.80
2022-08-17T04:45:56.322Z,20.80
2022-08-17T04:48:32.238Z,20.80
2022-08-17T04:51:10.619Z,20.80
2022-08-17T04:53:42.613Z,20.90
2022-08-17T04:56:11.586Z,20.90
2022-08-17T04:58:38.953Z,21.00
2022-08-17T05:01:07.073Z,21.00
2022-08-17T05:03:33.855Z,21.00
2022-08-17T05:06:00.631Z,21.10
2022-08-17T05:08:27.680Z,21.10
2022-08-17T05:10:54.815Z,21.10
2022-08-17T05:13:25.338Z,21.10
2022-08-17T05:15:59.017Z,21.20
2022-08-17T05:18:26.391Z,21.20
2022-08-17T05:20:53.903Z,21.30
2022-08-17T05:23:23.636Z,21.30
2022-08-17T05:25:52.016Z,21.40
2022-08-17T05:28:23.535Z,21.40
2022-08-17T05:30:55.526Z,21.50
2022-08-17T05:33:26.416Z,21.60
2022-08-17T05:35:55.485Z,21.70
2022-08-17T05:38:24.514Z,21.80
2022-08-17T05:40:52.510Z,21.90
2022-08-17T05:43:34.343Z,22.10
2022-08-17T05:46:13.123Z,22.20
2022-08-17T05:48:46.158Z,22.30
2022-08-17T05:51:42.959Z,22.40
2022-08-17T05:54:39.383Z,22.40
2022-08-17T05:57:24.672Z,22.40
2022-08-17T05:59:59.192Z,22.40
2022-08-17T06:02:59.305Z,22.40
2022-08-17T06:05:51.368Z,22.40
2022-08-17T06:08:42.107Z,22.30
2022-08-17T06:11:19.788Z,22.40
2022-08-17T06:13:55.633Z,22.40
2022-08-17T06:16:34.435Z,22.50
2022-08-17T06:19:27.552Z,22.60
2022-08-17T06:21:55.161Z,22.80
2022-08-17T06:24:40.521Z,22.90
2022-08-17T06:27:30.387Z,23.00
2022-08-17T06:30:20.762Z,23.20
2022-08-17T06:32:49.813Z,23.30
2022-08-17T06:35:32.079Z,23.40
2022-08-17T06:38:38.110Z,23.60
2022-08-17T06:41:05.527Z,23.70
2022-08-17T06:43:58.193Z,23.80
2022-08-17T06:46:25.434Z,23.90
2022-08-17T06:48:52.315Z,24.00
2022-08-17T06:51:29.287Z,24.00
2022-08-17T06:54:05.126Z,24.10
2022-08-17T06:56:52.964Z,24.20
2022-08-17T06:59:54.672Z,24.30
2022-08-17T07:03:02.552Z,24.40
2022-08-17T07:05:39.508Z,24.50
2022-08-17T07:08:51.501Z,24.50
2022-08-17T07:11:46.441Z,24.50
2022-08-17T07:14:53.893Z,24.40
2022-08-17T07:17:57.734Z,24.40
2022-08-17T07:20:17.833Z,24.40
2022-08-17T07:22:57.900Z,24.40
2022-08-17T07:25:28.572Z,24.40
2022-08-17T07:27:59.729Z,24.40
2022-08-17T07:30:31.021Z,24.40
2022-08-17T07:33:20.202Z,24.30
2022-08-17T07:35:48.282Z,24.50
2022-08-17T07:38:25.530Z,24.50
2022-08-17T07:41:05.277Z,24.50
2022-08-17T07:43:32.133Z,24.50
2022-08-17T07:46:17.788Z,24.50
2022-08-17T07:48:49.752Z,24.50
2022-08-17T07:51:29.136Z,24.60
2022-08-17T07:54:14.145Z,24.60
2022-08-17T07:56:55.472Z,24.70
2022-08-17T07:59:24.190Z,24.70
2022-08-17T08:01:58.108Z,24.80
2022-08-17T08:05:00.271Z,24.80
2022-08-17T08:07:21.080Z,24.90
2022-08-17T08:10:10.676Z,24.80
2022-08-17T08:12:46.583Z,24.80
2022-08-17T08:15:19.034Z,24.70
2022-08-17T08:18:01.189Z,24.70
2022-08-17T08:20:52.911Z,24.70
2022-08-17T08:23:47.036Z,24.70
2022-08-17T08:26:23.325Z,24.70
2022-08-17T08:29:01.856Z,24.60
2022-08-17T08:31:52.455Z,24.60
2022-08-17T08:34:44.451Z,24.60
2022-08-17T08:37:39.099Z,24.50
2022-08-17T08:40:33.578Z,24.50
2022-08-17T08:43:07.534Z,24.50
2022-08-17T08:46:02.084Z,24.50
2022-08-17T08:48:56.422Z,24.40
2022-08-17T08:51:57.042Z,24.40
2022-08-17T08:54:45.720Z,24.40
2022-08-17T08:57:34.269Z,24.30
2022-08-17T09:00:04.752Z,24.30
2022-08-17T09:02:37.223Z,24.20
2022-08-17T09:05:22.810Z,24.30
2022-08-17T09:08:08.777Z,24.30
2022-08-17T09:10:52.025Z,24.20
2022-08-17T09:13:29.683Z,24.30
2022-08-17T09:16:06.752Z,24.30
2022-08-17T09:19:02.955Z,24.30
2022-08-17T09:21:48.786Z,24.30
2022-08-17T09:24:43.723Z,24.30
2022-08-17T09:27:31.996Z,24.40
2022-08-17T09:30:02.579Z,24.40
2022-08-17T09:32:40.817Z,24.40
2022-08-17T09:35:16.824Z,24.50
2022-08-17T09:37:51.645Z,24.50
2022-08-17T09:40:24.551Z,24.50
2022-08-17T09:43:00.260Z,24.60
2022-08-17T09:45:36.167Z,24.70
2022-08-17T09:48:11.034Z,24.70
2022-08-17T09:51:04.754Z,24.80
2022-08-17T09:53:35.554Z,25.00
2022-08-17T09:56:34.353Z,25.10
2022-08-17T09:59:17.109Z,25.20
2022-08-17T10:02:02.237Z,25.30
2022-08-17T10:04:34.960Z,25.30
2022-08-17T10:07:20.413Z,25.40
2022-08-17T10:10:19.583Z,25.40
2022-08-17T10:12:53.309Z,25.40
2022-08-17T10:15:52.218Z,25.40
2022-08-17T10:18:30.567Z,25.40
2022-08-17T10:21:19.886Z,25.50
2022-08-17T10:24:13.018Z,25.50
2022-08-17T10:26:56.038Z,25.60
2022-08-17T10:29:49.200Z,25.60
2022-08-17T10:32:33.557Z,25.50
2022-08-17T10:35:18.022Z,25.50
2022-08-17T10:38:03.617Z,25.50
2022-08-17T10:40:51.724Z,25.50
2022-08-17T10:43:42.038Z,25.50
2022-08-17T10:46:52.130Z,25.50
2022-08-17T10:49:18.830Z,25.60
2022-08-17T10:51:48.566Z,25.70
2022-08-17T10:54:24.418Z,25.80
2022-08-17T10:56:53.855Z,26.00
2022-08-17T10:59:35.636Z,26.00
2022-08-17T11:02:12.096Z,26.00
2022-08-17T11:05:00.343Z,25.90
2022-08-17T11:07:51.190Z,25.80
2022-08-17T11:10:29.868Z,25.70
2022-08-17T11:13:15.532Z,25.50
2022-08-17T11:16:25.822Z,25.40
2022-08-17T11:19:17.243Z,25.30
2022-08-17T11:22:11.601Z,25.20
2022-08-17T11:24:47.660Z,25.10
2022-08-17T11:27:26.585Z,25.10
2022-08-17T11:30:02.302Z,25.10
2022-08-17T11:32:47.104Z,25.10
2022-08-17T11:35:20.699Z,25.10
2022-08-17T11:37:53.035Z,25.20
2022-08-17T11:40:25.786Z,25.40
2022-08-17T11:43:13.907Z,25.50
2022-08-17T11:45:46.786Z,26.00
2022-08-17T11:48:43.261Z,26.50
2022-08-17T11:51:33.490Z,27.00
2022-08-17T11:54:33.785Z,27.70
2022-08-17T11:57:26.871Z,28.30
2022-08-17T12:00:10.946Z,28.40
2022-08-17T12:02:48.173Z,28.50
2022-08-17T12:05:16.830Z,28.70
2022-08-17T12:07:47.765Z,28.80
2022-08-17T12:10:17.616Z,29.00
2022-08-17T12:12:46.266Z,29.00
2022-08-17T12:15:18.693Z,28.90
2022-08-17T12:17:53.702Z,28.80
2022-08-17T12:20:31.026Z,28.90
2022-08-17T12:23:12.469Z,29.10
2022-08-17T12:25:42.996Z,29.50
2022-08-17T12:28:33.142Z,29.80
2022-08-17T12:31:14.166Z,30.00
2022-08-17T12:33:46.049Z,30.30
2022-08-17T12:36:16.294Z,30.10
2022-08-17T12:38:51.710Z,29.80
2022-08-17T12:41:31.702Z,29.60
2022-08-17T12:44:02.005Z,29.60
2022-08-17T12:46:44.715Z,29.60
2022-08-17T12:49:22.904Z,29.50
2022-08-17T12:51:51.695Z,29.50
2022-08-17T12:54:29.182Z,29.50
2022-08-17T12:56:57.049Z,29.40
2022-08-17T12:59:29.972Z,29.30
2022-08-17T13:01:57.630Z,29.10
2022-08-17T13:04:26.529Z,29.00
2022-08-17T13:06:59.629Z,28.90
2022-08-17T13:09:33.523Z,28.90
2022-08-17T13:12:08.108Z,28.90
2022-08-17T13:14:35.308Z,28.70
2022-08-17T13:17:06.314Z,28.60
2022-08-17T13:19:41.465Z,28.70
2022-08-17T13:22:12.625Z,28.70
2022-08-17T13:24:52.943Z,28.70
2022-08-17T13:27:21.769Z,28.70
2022-08-17T13:29:57.140Z,28.80
2022-08-17T13:32:33.669Z,28.90
2022-08-17T13:35:14.886Z,28.90
2022-08-17T13:37:58.400Z,29.00
2022-08-17T13:40:49.873Z,29.00
2022-08-17T13:43:46.258Z,29.00
2022-08-17T13:46:22.580Z,29.10
2022-08-17T13:49:05.066Z,29.10
2022-08-17T13:51:36.350Z,29.10
2022-08-17T13:54:05.345Z,28.90
2022-08-17T13:56:40.365Z,29.00
2022-08-17T13:59:52.816Z,29.10
2022-08-17T14:02:13.485Z,29.20
2022-08-17T14:04:43.086Z,29.30
2022-08-17T14:07:11.482Z,29.40
2022-08-17T14:09:55.558Z,29.50
2022-08-17T14:12:26.978Z,29.60
2022-08-17T14:14:56.319Z,29.60
2022-08-17T14:17:24.611Z,29.60
2022-08-17T14:19:51.696Z,29.60
2022-08-17T14:22:33.512Z,29.80
2022-08-17T14:25:03.717Z,30.00
2022-08-17T14:27:34.070Z,30.10
2022-08-17T14:30:14.407Z,30.10
2022-08-17T14:32:41.513Z,30.10
2022-08-17T14:35:10.063Z,30.10
2022-08-17T14:37:37.483Z,30.30
2022-08-17T14:40:08.360Z,30.40
2022-08-17T14:42:37.978Z,30.50
2022-08-17T14:45:07.353Z,30.70
2022-08-17T14:47:54.073Z,30.80
2022-08-17T14:50:22.535Z,30.80
2022-08-17T14:52:50.729Z,30.70
2022-08-17T14:55:18.302Z,30.60
2022-08-17T14:57:45.798Z,30.50
2022-08-17T15:00:13.499Z,30.50
2022-08-17T15:02:53.720Z,30.40
2022-08-17T15:05:23.472Z,30.30
2022-08-17T15:07:50.921Z,30.40
2022-08-17T15:10:17.807Z,30.40
2022-08-17T15:12:44.543Z,30.40
2022-08-17T15:15:15.074Z,30.40
2022-08-17T15:17:45.993Z,30.40
2022-08-17T15:20:16.363Z,30.40
2022-08-17T15:22:44.854Z,30.40
2022-08-17T15:25:12.533Z,30.30
2022-08-17T15:27:40.190Z,30.40
2022-08-17T15:30:08.505Z,30.50
2022-08-17T15:32:38.161Z,30.50
2022-08-17T15:35:07.787Z,30.50
2022-08-17T15:37:35.367Z,30.50
2022-08-17T15:40:02.241Z,30.50
2022-08-17T15:42:29.304Z,30.40
2022-08-17T15:44:56.302Z,30.40
2022-08-17T15:47:24.093Z,30.40
2022-08-17T15:49:50.835Z,30.40
2022-08-17T15:52:24.128Z,30.40
2022-08-17T15:54:59.508Z,30.40
2022-08-17T15:57:27.189Z,30.40
2022-08-17T15:59:58.868Z,30.40
2022-08-17T16:03:14.352Z,30.30
2022-08-17T16:05:22.160Z,30.30
2022-08-17T16:07:52.283Z,30.20
2022-08-17T16:10:19.767Z,30.30
2022-08-17T16:12:48.485Z,30.40
2022-08-17T16:15:16.842Z,30.20
2022-08-17T16:17:43.551Z,30.10
2022-08-17T16:20:20.456Z,30.10
2022-08-17T16:22:49.490Z,30.10
2022-08-17T16:25:21.017Z,30.10
2022-08-17T16:27:50.454Z,30.10
2022-08-17T16:30:18.020Z,30.10
2022-08-17T16:32:45.662Z,30.20
2022-08-17T16:35:17.012Z,30.20
2022-08-17T16:37:45.483Z,30.20
2022-08-17T16:40:14.329Z,30.30
2022-08-17T16:42:43.057Z,30.20
2022-08-17T16:45:18.787Z,30.20
2022-08-17T16:47:46.014Z,30.20
2022-08-17T16:50:15.273Z,30.10
2022-08-17T16:52:42.161Z,30.00
2022-08-17T16:55:13.412Z,30.00
2022-08-17T16:57:47.292Z,30.00
2022-08-17T17:00:17.722Z,30.00
2022-08-17T17:02:47.862Z,30.00
2022-08-17T17:05:20.731Z,29.90
2022-08-17T17:08:12.734Z,29.90
2022-08-17T17:10:44.617Z,29.90
2022-08-17T17:13:27.008Z,29.90
2022-08-17T17:16:05.168Z,29.80
2022-08-17T17:18:40.887Z,29.80
2022-08-17T17:21:13.804Z,29.70
2022-08-17T17:23:55.956Z,29.60
2022-08-17T17:26:57.086Z,29.60
2022-08-17T17:29:47.730Z,29.60
2022-08-17T17:32:26.983Z,29.50
2022-08-17T17:35:01.389Z,29.50
2022-08-17T17:37:33.956Z,29.40
2022-08-17T17:40:07.542Z,29.40
2022-08-17T17:42:35.506Z,29.50
2022-08-17T17:45:09.157Z,29.40
2022-08-17T17:47:36.611Z,29.40
2022-08-17T17:50:06.107Z,29.40
2022-08-17T17:52:38.145Z,29.40
2022-08-17T17:55:16.613Z,29.40
2022-08-17T17:57:57.665Z,29.40
2022-08-17T18:00:34.663Z,29.40
2022-08-17T18:03:37.195Z,29.40
2022-08-17T18:06:22.809Z,29.20
2022-08-17T18:08:58.024Z,29.20
2022-08-17T18:11:34.966Z,29.10
2022-08-17T18:14:24.828Z,29.00
2022-08-17T18:16:59.521Z,29.00
2022-08-17T18:19:28.348Z,28.90
2022-08-17T18:22:02.191Z,28.90
2022-08-17T18:24:41.607Z,28.80
2022-08-17T18:27:25.377Z,28.80
2022-08-17T18:29:55.374Z,28.80
2022-08-17T18:32:24.323Z,28.80
2022-08-17T18:34:55.142Z,28.70
2022-08-17T18:37:33.532Z,28.70
2022-08-17T18:40:20.200Z,28.70
2022-08-17T18:42:58.338Z,28.60
2022-08-17T18:45:56.099Z,28.60
2022-08-17T18:48:22.917Z,28.60
2022-08-17T18:50:53.603Z,28.50
2022-08-17T18:53:26.954Z,28.40
2022-08-17T18:56:20.596Z,28.40
2022-08-17T18:59:10.134Z,28.30
2022-08-17T19:01:41.735Z,28.30
2022-08-17T19:04:36.601Z,28.20
2022-08-17T19:07:05.346Z,28.10
2022-08-17T19:09:54.689Z,28.10
2022-08-17T19:12:48.349Z,28.10
2022-08-17T19:15:23.144Z,28.00
2022-08-17T19:18:16.508Z,27.90
2022-08-17T19:21:16.736Z,27.90
2022-08-17T19:23:57.991Z,27.90
2022-08-17T19:26:53.928Z,27.80
2022-08-17T19:29:22.571Z,27.70
2022-08-17T19:31:49.726Z,27.70
2022-08-17T19:34:29.895Z,27.70
2022-08-17T19:37:04.509Z,27.70
2022-08-17T19:39:52.610Z,27.60
2022-08-17T19:42:40.454Z,27.60
2022-08-17T19:45:28.926Z,27.40
2022-08-17T19:48:03.166Z,27.50
2022-08-17T19:50:52.598Z,27.40
2022-08-17T19:54:05.473Z,27.40
2022-08-17T19:57:01.788Z,27.30
2022-08-17T19:59:48.788Z,27.20
2022-08-17T20:02:35.779Z,27.20
2022-08-17T20:05:11.326Z,27.00
2022-08-17T20:08:12.876Z,27.00
2022-08-17T20:10:48.010Z,27.00
2022-08-17T20:13:33.358Z,26.80
2022-08-17T20:16:02.025Z,26.80
2022-08-17T20:18:49.432Z,26.60
2022-08-17T20:21:21.562Z,26.60
2022-08-17T20:24:33.372Z,26.50
2022-08-17T20:27:09.939Z,26.40
2022-08-17T20:30:10.490Z,26.20
2022-08-17T20:32:52.683Z,26.00
2022-08-17T20:35:32.818Z,26.00
2022-08-17T20:38:03.236Z,25.90
2022-08-17T20:40:40.398Z,25.90
2022-08-17T20:43:35.195Z,25.80
2022-08-17T20:46:07.808Z,25.90
2022-08-17T20:48:39.724Z,25.80
2022-08-17T20:51:27.397Z,25.70
2022-08-17T20:53:54.084Z,25.60
2022-08-17T20:56:43.154Z,25.60
2022-08-17T20:59:31.579Z,25.60
2022-08-17T21:02:18.801Z,25.50
2022-08-17T21:04:54.230Z,25.60
2022-08-17T21:07:42.830Z,25.60
2022-08-17T21:10:15.674Z,25.50
2022-08-17T21:12:53.080Z,25.50
2022-08-17T21:15:41.722Z,25.50
2022-08-17T21:18:18.352Z,25.50
2022-08-17T21:21:03.508Z,25.40
2022-08-17T21:23:37.513Z,25.30
2022-08-17T21:26:17.363Z,25.30
2022-08-17T21:29:31.967Z,25.30
2022-08-17T21:31:59.377Z,25.20
2022-08-17T21:34:33.154Z,25.10
2022-08-17T21:37:18.426Z,25.10
2022-08-17T21:39:58.033Z,25.00
2022-08-17T21:42:34.457Z,24.90
2022-08-17T21:45:11.639Z,24.90
2022-08-17T21:47:45.162Z,24.90
2022-08-17T21:50:24.444Z,24.80
2022-08-17T21:52:54.101Z,24.80
2022-08-17T21:55:29.717Z,24.70
2022-08-17T21:58:14.276Z,24.70
2022-08-17T22:00:44.440Z,24.70
2022-08-17T22:03:23.871Z,24.60
2022-08-17T22:05:51.258Z,24.60
2022-08-17T22:08:21.953Z,24.50
2022-08-17T22:10:51.127Z,24.50
2022-08-17T22:13:17.900Z,24.50
2022-08-17T22:16:28.891Z,24.50
2022-08-17T22:18:58.746Z,24.50
2022-08-17T22:21:26.093Z,24.40
2022-08-17T22:24:05.974Z,24.30
2022-08-17T22:27:01.515Z,24.30
2022-08-17T22:29:53.242Z,24.30
2022-08-17T22:32:39.113Z,24.20
2022-08-17T22:35:15.483Z,24.20
2022-08-17T22:37:42.181Z,24.20
2022-08-17T22:40:09.339Z,24.10
2022-08-17T22:42:47.215Z,24.20
2022-08-17T22:45:14.128Z,24.20
2022-08-17T22:47:48.789Z,24.20
2022-08-17T22:50:23.794Z,24.20
2022-08-17T22:53:32.396Z,24.20
2022-08-17T22:56:17.622Z,24.20
2022-08-17T22:59:15.259Z,24.20
2022-08-17T23:01:45.209Z,24.30
2022-08-17T23:04:35.842Z,24.20
2022-08-17T23:07:02.613Z,24.30
2022-08-17T23:09:29.868Z,24.20
2022-08-17T23:11:58.496Z,24.30
2022-08-17T23:14:31.472Z,24.30
2022-08-17T23:17:01.863Z,24.30
2022-08-17T23:19:31.628Z,24.40
2022-08-17T23:21:59.262Z,24.40
2022-08-17T23:24:29.756Z,24.40
2022-08-17T23:26:58.077Z,24.50
2022-08-17T23:29:27.579Z,24.50
2022-08-17T23:31:54.614Z,24.50
2022-08-17T23:34:21.426Z,24.50
2022-08-17T23:36:52.889Z,24.50
2022-08-17T23:39:27.786Z,24.50
2022-08-17T23:41:59.358Z,24.50
2022-08-17T23:44:26.820Z,24.40
2022-08-17T23:46:54.300Z,24.40
2022-08-17T23:49:20.984Z,24.30
2022-08-17T23:51:48.753Z,24.20
2022-08-17T23:54:21.355Z,24.20
2022-08-17T23:56:48.306Z,24.20
2022-08-17T23:59:17.399Z,24.10
